Nashville, Tennessee
Current Conditions -  °F | °C
As of 8:53 AM on Saturday 25 Oct 2014 (Local Time) from KBNA Reporting Station
Broken Clouds Broken Clouds  
Wind Chill: 12°   Ceiling: 4500
Heat Index: 12°   Visibility: 10mi
Dew Point: 10°   Wind: 3mph
Humidity: 89%   Direction: 200°SSW
Pressure: 30.11"   Gusts: NA
Location:  36.11°N, 86.68°W
Report Text: KBNA 251353Z 20003KT 10SM BKN045 12/10 A3011 RMK AO2 SLP194 T01170100
Loading
Personal Weather Stations






























Interactive Weather Map
Tropical Storm Tracking
New forecast layout! Learn more

10-Day Weather Forecast

Advertisements
Track Severe Weather on mobile